Time;durP1;ratioP1;P1;durP2;ratioP2;P2;SDS_P1;SDS_P2;PMS_P1;PMS_P2;Temp;Humidity;BMP_temperature;BMP_pressure;BME280_temperature;BME280_humidity;BME280_pressure;Samples;Min_cycle;Max_cycle;Signal;HPM_P1;HPM_P2
2022/04/14 00:00:29;;;;;;;37.28;20.27;;;8.90;99.90;;;;;;5099212;28;20526;-77
2022/04/14 00:02:55;;;;;;;32.80;19.77;;;8.80;99.90;;;;;;5097289;28;20048;-77
2022/04/14 00:05:22;;;;;;;33.25;20.80;;;8.70;99.90;;;;;;5098772;28;20026;-76
2022/04/14 00:07:48;;;;;;;27.05;19.63;;;8.70;99.90;;;;;;5097795;28;20107;-77
2022/04/14 00:10:15;;;;;;;34.08;20.20;;;8.70;99.90;;;;;;5098076;28;20074;-77
2022/04/14 00:12:42;;;;;;;30.42;20.17;;;8.70;99.90;;;;;;5098011;28;20097;-77
2022/04/14 00:15:10;;;;;;;29.38;21.25;;;8.70;99.90;;;;;;5097214;28;20028;-77
2022/04/14 00:17:36;;;;;;;24.75;18.92;;;8.70;99.90;;;;;;5098339;28;20054;-77
2022/04/14 00:20:08;;;;;;;32.33;20.13;;;8.70;99.90;;;;;;5097016;28;20463;-77
2022/04/14 00:22:35;;;;;;;24.50;19.20;;;8.60;99.90;;;;;;5096890;28;20027;-77
2022/04/14 00:25:01;;;;;;;34.40;22.77;;;8.60;99.90;;;;;;5098395;28;20480;-78
2022/04/14 00:27:27;;;;;;;31.20;21.75;;;8.60;99.90;;;;;;5096473;28;20054;-78
2022/04/14 00:29:53;;;;;;;29.42;21.67;;;8.50;99.90;;;;;;5098431;28;20024;-78
2022/04/14 00:32:19;;;;;;;33.85;20.13;;;8.50;99.90;;;;;;5098019;28;20028;-77
2022/04/14 00:34:45;;;;;;;28.63;20.08;;;8.50;99.90;;;;;;5097982;28;20030;-77
2022/04/14 00:37:11;;;;;;;33.47;21.48;;;8.40;99.90;;;;;;5097989;28;20514;-77
2022/04/14 00:39:38;;;;;;;36.53;23.30;;;8.50;99.90;;;;;;5098030;28;20028;-77
2022/04/14 00:42:11;;;;;;;33.35;22.30;;;8.50;99.90;;;;;;5096220;28;20020;-77
2022/04/14 00:44:37;;;;;;;64.57;28.13;;;8.50;99.90;;;;;;5097896;28;20476;-77
2022/04/14 00:47:04;;;;;;;50.05;24.95;;;8.50;99.90;;;;;;5096638;28;20452;-77
2022/04/14 00:49:30;;;;;;;48.97;27.45;;;8.50;99.90;;;;;;5098032;28;20491;-77
2022/04/14 00:52:00;;;;;;;45.63;26.67;;;8.50;99.90;;;;;;5096584;28;20024;-77
2022/04/14 00:54:28;;;;;;;41.60;27.60;;;8.50;99.90;;;;;;5097653;28;20131;-77
2022/04/14 00:56:56;;;;;;;53.90;29.73;;;8.60;99.90;;;;;;5096375;28;20518;-76
2022/04/14 00:59:22;;;;;;;68.78;32.15;;;8.60;99.90;;;;;;5097618;28;20028;-76
2022/04/14 01:01:48;;;;;;;53.20;30.35;;;8.60;99.90;;;;;;5098026;28;20024;-77
2022/04/14 01:04:15;;;;;;;51.33;28.35;;;8.70;99.90;;;;;;5097221;28;20024;-77
2022/04/14 01:06:42;;;;;;;58.58;29.25;;;8.60;99.90;;;;;;5097286;28;20032;-77
2022/04/14 01:09:20;;;;;;;68.82;30.15;;;8.70;99.90;;;;;;5097595;28;20029;-77
2022/04/14 01:11:52;;;;;;;67.50;28.80;;;8.70;99.90;;;;;;5096386;28;20499;-77
2022/04/14 01:14:28;;;;;;;118.93;27.88;;;8.70;99.90;;;;;;5096148;28;20610;-76
2022/04/14 01:16:58;;;;;;;67.10;27.00;;;8.70;99.90;;;;;;5096290;28;20020;-77
2022/04/14 01:19:24;;;;;;;68.82;29.52;;;8.70;99.90;;;;;;5097722;28;20023;-78
2022/04/14 01:21:58;;;;;;;53.88;25.92;;;8.70;99.90;;;;;;5097220;28;20031;-78
2022/04/14 01:24:25;;;;;;;54.13;26.08;;;8.70;99.90;;;;;;5097343;28;20106;-77
2022/04/14 01:26:51;;;;;;;44.28;24.70;;;8.70;99.90;;;;;;5095457;28;20103;-77
2022/04/14 01:29:25;;;;;;;48.80;23.70;;;8.70;99.90;;;;;;5097251;28;20059;-78
2022/04/14 01:31:52;;;;;;;40.20;24.52;;;8.70;99.90;;;;;;5097134;28;20027;-78
2022/04/14 01:34:18;;;;;;;44.20;23.52;;;8.70;99.90;;;;;;5097406;28;20024;-77
2022/04/14 01:36:45;;;;;;;37.88;22.15;;;8.70;99.90;;;;;;5096895;28;20032;-78
2022/04/14 01:39:13;;;;;;;30.40;21.10;;;8.70;99.90;;;;;;5097327;28;20384;-78
2022/04/14 01:41:40;;;;;;;43.28;21.45;;;8.60;99.90;;;;;;5096788;28;20023;-78
2022/04/14 01:44:06;;;;;;;41.05;22.08;;;8.60;99.90;;;;;;5095867;28;20032;-78
2022/04/14 01:46:32;;;;;;;37.55;20.80;;;8.60;99.90;;;;;;5096838;28;20061;-79
2022/04/14 01:48:59;;;;;;;43.90;21.45;;;8.60;99.90;;;;;;5097169;28;20103;-78
2022/04/14 01:51:29;;;;;;;57.72;24.10;;;8.60;99.90;;;;;;5095708;28;20028;-78
2022/04/14 01:53:55;;;;;;;49.40;23.52;;;8.60;99.90;;;;;;5097139;28;20035;-77
2022/04/14 01:56:21;;;;;;;34.75;21.75;;;8.60;99.90;;;;;;5095294;28;20396;-78
2022/04/14 01:58:48;;;;;;;31.63;21.55;;;8.60;99.90;;;;;;5096792;28;20028;-78
2022/04/14 02:01:14;;;;;;;34.70;20.23;;;8.50;99.90;;;;;;5096954;28;20021;-78
2022/04/14 02:03:40;;;;;;;35.13;20.40;;;8.50;99.90;;;;;;5095696;28;20031;-78
2022/04/14 02:06:06;;;;;;;35.30;19.88;;;8.50;99.90;;;;;;5096818;28;20020;-78
2022/04/14 02:08:32;;;;;;;31.00;19.95;;;8.40;99.90;;;;;;5095610;28;20124;-78
2022/04/14 02:10:58;;;;;;;40.30;22.27;;;8.40;99.90;;;;;;5096530;28;20052;-78
2022/04/14 02:13:24;;;;;;;31.65;21.73;;;8.50;99.90;;;;;;5096915;28;20020;-79
2022/04/14 02:15:50;;;;;;;40.40;21.58;;;8.50;99.90;;;;;;5096910;28;20484;-78
2022/04/14 02:18:15;;;;;;;34.83;21.15;;;8.50;99.90;;;;;;5096902;28;20020;-78
2022/04/14 02:20:41;;;;;;;35.33;22.48;;;8.50;99.90;;;;;;5096950;28;20494;-78
2022/04/14 02:23:07;;;;;;;44.13;22.20;;;8.50;99.90;;;;;;5095492;28;20035;-78
2022/04/14 02:25:33;;;;;;;43.25;23.70;;;8.50;99.90;;;;;;5095366;28;20434;-78
2022/04/14 02:27:59;;;;;;;41.97;24.42;;;8.50;99.90;;;;;;5095120;28;20056;-78
2022/04/14 02:30:25;;;;;;;37.63;23.27;;;8.60;99.90;;;;;;5081678;28;20028;-78
2022/04/14 02:32:50;;;;;;;53.55;22.17;;;8.60;99.90;;;;;;5097535;28;20031;-78
2022/04/14 02:35:16;;;;;;;40.90;23.58;;;8.60;99.90;;;;;;5100219;28;20107;-78
2022/04/14 02:37:42;;;;;;;42.20;21.55;;;8.60;99.90;;;;;;5100533;28;20024;-78
2022/04/14 02:40:09;;;;;;;37.58;22.20;;;8.60;99.90;;;;;;5099189;28;20024;-78
2022/04/14 02:42:35;;;;;;;33.67;20.45;;;8.60;99.90;;;;;;5100077;28;20077;-77
2022/04/14 02:45:01;;;;;;;46.15;22.77;;;8.50;99.90;;;;;;5100131;28;20024;-77
2022/04/14 02:47:26;;;;;;;39.00;21.55;;;8.50;99.90;;;;;;5099872;28;20488;-77
2022/04/14 02:49:52;;;;;;;43.55;22.33;;;8.50;99.90;;;;;;5100440;28;20395;-77
2022/04/14 02:52:19;;;;;;;46.83;24.27;;;8.50;99.90;;;;;;5100018;28;20051;-77
2022/04/14 02:54:45;;;;;;;62.22;24.90;;;8.50;99.90;;;;;;5098592;28;20028;-78
2022/04/14 02:57:11;;;;;;;47.30;24.50;;;8.50;99.90;;;;;;5099585;28;20032;-77
2022/04/14 02:59:37;;;;;;;58.55;24.35;;;8.50;99.90;;;;;;5099845;28;20016;-77
2022/04/14 03:02:04;;;;;;;85.53;24.85;;;8.50;99.90;;;;;;5098367;28;20397;-77
2022/04/14 03:04:30;;;;;;;41.08;24.10;;;8.50;99.90;;;;;;5098781;28;20016;-77
2022/04/14 03:06:57;;;;;;;38.17;24.48;;;8.50;99.90;;;;;;5098524;28;20024;-76
2022/04/14 03:09:26;;;;;;;37.88;22.23;;;8.50;99.90;;;;;;5097773;28;20024;-76
2022/04/14 03:11:52;;;;;;;44.13;24.77;;;8.50;99.90;;;;;;5099320;28;20017;-76
2022/04/14 03:14:18;;;;;;;59.80;23.77;;;8.40;99.90;;;;;;5099583;28;20013;-76
2022/04/14 03:16:44;;;;;;;53.97;21.92;;;8.40;99.90;;;;;;5099465;28;20031;-77
2022/04/14 03:19:10;;;;;;;42.58;20.63;;;8.40;99.90;;;;;;5099490;28;20020;-77
2022/04/14 03:21:36;;;;;;;39.92;20.08;;;8.40;99.90;;;;;;5099359;28;20046;-77
2022/04/14 03:24:02;;;;;;;32.75;19.98;;;8.40;99.90;;;;;;5099376;28;20020;-76
2022/04/14 03:26:27;;;;;;;33.22;19.88;;;8.40;99.90;;;;;;5099282;28;20024;-76
2022/04/14 03:28:53;;;;;;;36.33;20.13;;;8.40;99.90;;;;;;5099296;28;20012;-76
2022/04/14 03:31:19;;;;;;;38.22;20.73;;;8.40;99.90;;;;;;5097959;28;20485;-77
2022/04/14 03:33:45;;;;;;;36.20;21.15;;;8.40;99.90;;;;;;5099101;28;20485;-77
2022/04/14 03:36:11;;;;;;;34.38;20.75;;;8.40;99.90;;;;;;5097779;28;20028;-77
2022/04/14 03:38:37;;;;;;;34.47;21.20;;;8.40;99.90;;;;;;5099042;28;20024;-77
2022/04/14 03:41:07;;;;;;;33.15;20.83;;;8.40;99.90;;;;;;5098215;28;20020;-77
2022/04/14 03:43:36;;;;;;;37.05;21.63;;;8.40;99.90;;;;;;5097974;28;20017;-77
2022/04/14 03:46:03;;;;;;;51.28;21.63;;;8.40;99.90;;;;;;5097600;28;20052;-77
2022/04/14 03:48:29;;;;;;;29.75;19.27;;;8.40;99.90;;;;;;5097574;28;20032;-77
2022/04/14 03:50:55;;;;;;;24.08;17.90;;;8.40;99.90;;;;;;5097857;28;20024;-77
2022/04/14 03:53:22;;;;;;;25.50;17.92;;;8.40;99.90;;;;;;5099022;28;20077;-77
2022/04/14 03:55:48;;;;;;;26.48;17.80;;;8.30;99.90;;;;;;5098735;28;20027;-77
2022/04/14 03:58:17;;;;;;;26.48;18.48;;;8.40;99.90;;;;;;5098217;28;20099;-77
2022/04/14 04:00:43;;;;;;;25.90;17.70;;;8.30;99.90;;;;;;5097725;28;20107;-77
2022/04/14 04:03:12;;;;;;;28.02;18.52;;;8.30;99.90;;;;;;5098574;28;20025;-77
2022/04/14 04:05:38;;;;;;;26.95;19.55;;;8.20;99.90;;;;;;5097355;28;20020;-77
2022/04/14 04:08:05;;;;;;;40.85;20.80;;;8.10;99.90;;;;;;5098613;28;20028;-77
2022/04/14 04:10:32;;;;;;;47.65;21.63;;;8.10;99.90;;;;;;5098575;28;20017;-77
2022/04/14 04:12:58;;;;;;;142.95;22.77;;;8.00;99.90;;;;;;5098197;28;20051;-76
2022/04/14 04:15:24;;;;;;;145.60;23.55;;;8.00;99.90;;;;;;5098581;28;20078;-77
2022/04/14 04:17:53;;;;;;;83.13;20.35;;;8.00;99.90;;;;;;5097037;28;20096;-76
2022/04/14 04:20:20;;;;;;;64.60;21.30;;;8.00;99.90;;;;;;5098176;28;20392;-76
2022/04/14 04:22:46;;;;;;;91.15;20.35;;;7.90;99.90;;;;;;5098479;28;20111;-76
2022/04/14 04:25:12;;;;;;;49.70;20.80;;;7.90;99.90;;;;;;5098507;28;20012;-76
2022/04/14 04:27:39;;;;;;;46.03;19.85;;;7.90;99.90;;;;;;5098017;28;20028;-76
2022/04/14 04:30:06;;;;;;;35.92;20.10;;;7.90;99.90;;;;;;5098113;28;20141;-76
2022/04/14 04:32:35;;;;;;;27.98;19.05;;;7.80;99.90;;;;;;5098153;28;20024;-76
2022/04/14 04:35:03;;;;;;;30.02;18.75;;;7.80;99.90;;;;;;5097991;28;20094;-76
2022/04/14 04:37:29;;;;;;;28.45;18.55;;;7.70;99.90;;;;;;5097282;28;20109;-76
2022/04/14 04:39:56;;;;;;;23.98;18.58;;;7.70;99.90;;;;;;5098148;28;20019;-76
2022/04/14 04:42:22;;;;;;;32.00;18.27;;;7.70;99.90;;;;;;5097813;28;20369;-76
2022/04/14 04:44:48;;;;;;;58.75;20.90;;;7.60;99.90;;;;;;5098304;28;20020;-76
2022/04/14 04:47:15;;;;;;;38.83;19.50;;;7.60;99.90;;;;;;5096588;28;20144;-76
2022/04/14 04:49:41;;;;;;;36.65;18.65;;;7.60;99.90;;;;;;5097806;28;20020;-76
2022/04/14 04:52:07;;;;;;;63.97;18.88;;;7.60;99.90;;;;;;5096696;28;20082;-76
2022/04/14 04:54:33;;;;;;;127.90;19.17;;;7.60;99.90;;;;;;5096812;28;20073;-76
2022/04/14 04:56:59;;;;;;;108.57;20.33;;;7.60;99.90;;;;;;5098048;28;20028;-77
2022/04/14 04:59:25;;;;;;;21.95;16.20;;;7.60;99.90;;;;;;5093758;28;20039;-76
2022/04/14 05:01:51;;;;;;;32.33;15.40;;;7.60;99.90;;;;;;5098385;28;20081;-79
2022/04/14 05:04:20;;;;;;;46.72;14.77;;;7.60;99.90;;;;;;5098509;28;20030;-79
2022/04/14 05:06:46;;;;;;;24.38;15.07;;;7.50;99.90;;;;;;5097273;28;20052;-79
2022/04/14 05:09:12;;;;;;;29.90;15.25;;;7.50;99.90;;;;;;5097309;28;20024;-80
2022/04/14 05:11:38;;;;;;;32.70;16.10;;;7.50;99.90;;;;;;5096095;28;20052;-79
2022/04/14 05:14:04;;;;;;;20.65;15.75;;;7.50;99.90;;;;;;5091531;28;20039;-79
2022/04/14 05:16:29;;;;;;;18.65;14.05;;;7.50;99.90;;;;;;5094976;28;20480;-79
2022/04/14 05:18:58;;;;;;;18.08;13.93;;;7.50;99.90;;;;;;5084167;28;20063;-79
2022/04/14 05:21:26;;;;;;;16.60;13.30;;;7.40;99.90;;;;;;5093590;28;20048;-78
2022/04/14 05:23:52;;;;;;;20.65;14.52;;;7.40;99.90;;;;;;5098928;28;20011;-79
2022/04/14 05:26:18;;;;;;;18.95;14.27;;;7.40;99.90;;;;;;5098951;28;20024;-78
2022/04/14 05:28:44;;;;;;;24.52;15.15;;;7.40;99.90;;;;;;5098947;28;20026;-79
2022/04/14 05:31:10;;;;;;;24.08;16.40;;;7.50;99.90;;;;;;5098861;28;20113;-77
2022/04/14 05:33:36;;;;;;;55.50;16.35;;;7.50;99.90;;;;;;5097999;28;20028;-78
2022/04/14 05:36:02;;;;;;;27.02;17.23;;;7.50;99.90;;;;;;5096578;28;20058;-78
2022/04/14 05:38:31;;;;;;;18.92;16.83;;;7.60;99.90;;;;;;5094799;28;20028;-78
2022/04/14 05:40:57;;;;;;;26.48;16.08;;;7.60;99.90;;;;;;5097573;28;20051;-78
2022/04/14 05:43:27;;;;;;;47.90;16.10;;;7.70;99.90;;;;;;5095974;28;20024;-78
2022/04/14 05:45:54;;;;;;;39.35;15.35;;;7.70;99.90;;;;;;5097481;28;20044;-78
2022/04/14 05:48:20;;;;;;;95.53;17.85;;;7.80;99.90;;;;;;5097111;28;20063;-79
2022/04/14 05:50:47;;;;;;;47.75;16.17;;;7.90;99.90;;;;;;5097127;28;20024;-78
2022/04/14 05:53:13;;;;;;;25.45;15.38;;;7.90;99.90;;;;;;5097265;28;20496;-78
2022/04/14 05:55:47;;;;;;;31.17;16.05;;;7.90;99.90;;;;;;5097129;28;20047;-78
2022/04/14 05:58:13;;;;;;;29.17;16.73;;;8.00;99.90;;;;;;5095517;28;20024;-79
2022/04/14 06:00:42;;;;;;;21.08;16.35;;;8.00;99.90;;;;;;5088895;28;20024;-78
2022/04/14 06:03:07;;;;;;;47.65;18.70;;;8.10;99.90;;;;;;5097092;28;20032;-79
2022/04/14 06:05:34;;;;;;;72.45;18.73;;;8.10;99.90;;;;;;5096717;28;20020;-79
2022/04/14 06:08:00;;;;;;;41.95;17.65;;;8.10;99.90;;;;;;5097656;28;20399;-78
2022/04/14 06:10:27;;;;;;;36.00;17.52;;;8.10;99.90;;;;;;5100186;28;20085;-78
2022/04/14 06:12:56;;;;;;;81.35;17.48;;;8.20;99.90;;;;;;5098329;28;20024;-79
2022/04/14 06:15:22;;;;;;;74.15;17.45;;;8.20;99.90;;;;;;5092546;28;20028;-80
2022/04/14 06:17:49;;;;;;;42.78;16.48;;;8.30;99.90;;;;;;5085560;28;20396;-79
2022/04/14 06:20:15;;;;;;;63.05;17.10;;;8.30;99.90;;;;;;5085585;28;20054;-81
2022/04/14 06:22:45;;;;;;;86.30;17.15;;;8.30;99.90;;;;;;5100498;28;20036;-80
2022/04/14 06:25:13;;;;;;;75.13;17.80;;;8.40;99.90;;;;;;5099593;28;20118;-80
2022/04/14 06:27:55;;;;;;;20.65;16.23;;;8.50;99.90;;;;;;5099169;28;20035;-81
2022/04/14 06:30:21;;;;;;;48.95;14.27;;;8.70;99.90;;;;;;5088536;28;20029;-78
2022/04/14 06:33:04;;;;;;;30.83;14.98;;;8.80;99.90;;;;;;5099289;28;20024;-79
2022/04/14 06:35:30;;;;;;;56.33;15.18;;;8.90;99.90;;;;;;5098839;28;20031;-79
2022/04/14 06:37:56;;;;;;;31.80;11.77;;;9.00;99.90;;;;;;5100256;28;20432;-79
2022/04/14 06:40:29;;;;;;;90.25;13.27;;;9.10;99.90;;;;;;5081191;28;20089;-80
2022/04/14 06:42:55;;;;;;;92.18;13.32;;;9.10;99.90;;;;;;5096642;28;20110;-79
2022/04/14 06:45:21;;;;;;;83.38;14.00;;;9.20;99.90;;;;;;5099306;28;20050;-80
2022/04/14 06:47:50;;;;;;;131.82;13.65;;;9.20;99.90;;;;;;5092100;28;20025;-80
2022/04/14 06:50:16;;;;;;;64.03;12.32;;;9.30;99.90;;;;;;5099978;28;20041;-79
2022/04/14 06:52:42;;;;;;;57.15;10.73;;;9.40;99.90;;;;;;5095246;28;20040;-79
2022/04/14 06:55:09;;;;;;;60.03;11.57;;;9.30;99.90;;;;;;5080981;28;20029;-79
2022/04/14 06:57:35;;;;;;;67.53;12.30;;;9.40;99.90;;;;;;5089792;28;20110;-80
2022/04/14 07:00:02;;;;;;;62.88;12.02;;;9.40;99.90;;;;;;5098583;28;20020;-80
2022/04/14 07:02:45;;;;;;;72.00;12.75;;;9.60;99.90;;;;;;5099897;28;20023;-80
2022/04/14 07:05:11;;;;;;;42.75;11.13;;;9.70;99.90;;;;;;5099989;28;20024;-80
2022/04/14 07:07:37;;;;;;;160.80;14.68;;;9.80;99.90;;;;;;5099744;28;20087;-80
2022/04/14 07:10:03;;;;;;;85.70;13.02;;;9.70;99.90;;;;;;5099827;28;20095;-80
2022/04/14 07:12:29;;;;;;;132.07;13.68;;;9.80;99.90;;;;;;5098498;28;20031;-80
2022/04/14 07:14:55;;;;;;;127.75;15.13;;;9.90;99.90;;;;;;5097872;28;20042;-80
2022/04/14 07:17:22;;;;;;;125.78;14.38;;;9.90;99.90;;;;;;5083239;28;20020;-81
2022/04/14 07:19:48;;;;;;;43.85;11.98;;;10.00;99.90;;;;;;5080126;28;20028;-81
2022/04/14 07:22:20;;;;;;;79.63;14.18;;;10.30;99.90;;;;;;5098074;28;20024;-80
2022/04/14 07:24:48;;;;;;;58.33;13.65;;;10.40;99.90;;;;;;5099740;28;20066;-80
2022/04/14 07:27:15;;;;;;;69.25;13.40;;;10.50;99.90;;;;;;5098696;28;20054;-79
2022/04/14 07:29:41;;;;;;;56.65;14.52;;;10.50;99.90;;;;;;5108329;28;20024;-80
2022/04/14 07:32:07;;;;;;;25.45;12.95;;;10.70;99.90;;;;;;5095991;28;20062;-79
2022/04/14 07:34:33;;;;;;;100.35;15.30;;;10.70;99.90;;;;;;5099296;28;20067;-79
2022/04/14 07:36:58;;;;;;;59.28;13.98;;;10.80;99.90;;;;;;5099433;28;20016;-79
2022/04/14 07:39:24;;;;;;;169.90;16.65;;;10.90;99.90;;;;;;5089863;28;20473;-80
2022/04/14 07:41:50;;;;;;;59.42;13.00;;;10.80;99.90;;;;;;5084056;28;20020;-78
2022/04/14 07:44:16;;;;;;;59.25;13.07;;;10.90;99.90;;;;;;5097190;28;20404;-79
2022/04/14 07:46:42;;;;;;;54.42;12.98;;;11.10;99.90;;;;;;5099091;28;20040;-79
2022/04/14 07:49:08;;;;;;;21.05;13.35;;;11.00;99.90;;;;;;5097917;28;20399;-79
2022/04/14 07:51:34;;;;;;;54.78;14.00;;;11.20;99.90;;;;;;5098002;28;20050;-79
2022/04/14 07:53:59;;;;;;;97.30;14.68;;;11.30;99.90;;;;;;5099270;28;20055;-79
2022/04/14 07:56:25;;;;;;;67.45;14.48;;;11.20;99.90;;;;;;5098612;28;20028;-79
2022/04/14 07:58:51;;;;;;;43.47;13.30;;;11.20;99.90;;;;;;5097413;28;20024;-79
2022/04/14 08:01:20;;;;;;;108.55;16.00;;;11.20;99.90;;;;;;5097426;28;20054;-77
2022/04/14 08:03:47;;;;;;;69.20;15.18;;;11.20;99.90;;;;;;5099056;28;20520;-80
2022/04/14 08:06:14;;;;;;;27.08;13.52;;;11.20;99.90;;;;;;5097402;28;20024;-80
2022/04/14 08:08:40;;;;;;;39.33;14.70;;;11.40;99.90;;;;;;5097716;28;20020;-80
2022/04/14 08:11:08;;;;;;;37.55;13.55;;;11.50;99.90;;;;;;5098545;28;20042;-80
2022/04/14 08:13:37;;;;;;;28.63;13.75;;;11.70;99.90;;;;;;5098638;28;20472;-80
2022/04/14 08:16:09;;;;;;;63.95;12.77;;;11.70;99.90;;;;;;5098532;28;20012;-80
2022/04/14 08:18:39;;;;;;;33.42;12.57;;;11.70;99.90;;;;;;5097035;28;20028;-81
2022/04/14 08:21:05;;;;;;;37.33;12.68;;;11.70;99.90;;;;;;5097067;28;20089;-81
2022/04/14 08:23:38;;;;;;;28.30;13.15;;;11.80;99.90;;;;;;5095517;28;20030;-81
2022/04/14 08:26:13;;;;;;;30.50;13.88;;;12.10;99.90;;;;;;5088323;28;20062;-82
2022/04/14 08:28:41;;;;;;;21.05;12.13;;;12.10;99.90;;;;;;5092653;28;20048;-85
2022/04/14 08:31:11;;;;;;;43.70;13.23;;;12.20;99.90;;;;;;5090292;28;20031;-85
2022/04/14 08:33:38;;;;;;;16.08;12.75;;;12.40;99.90;;;;;;5096692;28;20031;-85
2022/04/14 08:36:05;;;;;;;16.05;11.85;;;12.60;99.90;;;;;;5100050;28;20095;-86
2022/04/14 08:38:31;;;;;;;22.95;12.88;;;12.80;99.90;;;;;;5097851;28;20416;-84
2022/04/14 08:41:03;;;;;;;16.88;12.60;;;13.00;99.90;;;;;;5095737;28;20089;-86
2022/04/14 08:43:35;;;;;;;15.63;12.73;;;13.20;99.90;;;;;;5097818;28;20072;-85
2022/04/14 08:46:03;;;;;;;17.52;13.98;;;13.20;99.90;;;;;;5096456;28;20064;-85
2022/04/14 08:48:29;;;;;;;16.35;11.43;;;13.10;99.90;;;;;;5098159;28;20089;-85
2022/04/14 08:50:56;;;;;;;17.98;12.75;;;13.30;99.90;;;;;;5098225;28;20031;-85
2022/04/14 08:53:26;;;;;;;17.30;13.25;;;13.40;99.90;;;;;;5096662;28;20522;-85
2022/04/14 08:55:53;;;;;;;19.00;13.48;;;13.40;99.90;;;;;;5096325;28;20032;-85
2022/04/14 08:58:26;;;;;;;15.65;12.60;;;13.40;99.90;;;;;;5095805;28;20111;-86
2022/04/14 09:00:56;;;;;;;18.38;13.27;;;13.70;99.90;;;;;;5098328;28;20015;-86
2022/04/14 09:03:25;;;;;;;17.48;12.32;;;13.80;99.90;;;;;;5097026;28;20020;-85
2022/04/14 09:05:51;;;;;;;20.75;13.65;;;13.90;99.90;;;;;;5098153;28;20031;-85
2022/04/14 09:08:17;;;;;;;20.58;13.90;;;14.00;99.90;;;;;;5097811;28;20461;-86
2022/04/14 09:10:43;;;;;;;16.70;12.23;;;14.20;99.90;;;;;;5096144;28;20111;-86
2022/04/14 09:13:14;;;;;;;21.65;12.20;;;14.20;99.90;;;;;;5097947;28;20041;-85
2022/04/14 09:15:40;;;;;;;17.67;13.05;;;14.20;99.90;;;;;;5096259;28;20484;-85
2022/04/14 09:18:07;;;;;;;20.92;13.05;;;14.00;99.90;;;;;;5097517;28;20476;-85
2022/04/14 09:20:37;;;;;;;19.88;13.60;;;14.10;99.90;;;;;;5098100;28;20085;-85
2022/04/14 09:23:22;;;;;;;20.42;14.15;;;14.20;99.90;;;;;;5096983;28;20028;-85
2022/04/14 09:26:04;;;;;;;17.73;13.88;;;14.30;99.90;;;;;;5096219;28;20138;-85
2022/04/14 09:28:30;;;;;;;20.30;13.95;;;14.60;99.90;;;;;;5097047;28;20392;-84
2022/04/14 09:31:00;;;;;;;20.15;15.68;;;14.50;99.90;;;;;;5085116;28;20422;-84
2022/04/14 09:33:27;;;;;;;21.50;14.75;;;14.50;99.90;;;;;;5097692;28;20056;-85
2022/04/14 09:36:13;;;;;;;17.88;12.98;;;14.50;99.90;;;;;;5097612;28;20019;-84
2022/04/14 09:38:56;;;;;;;18.48;12.73;;;14.60;99.90;;;;;;5096035;28;20024;-84
2022/04/14 09:41:37;;;;;;;18.65;13.18;;;14.40;99.90;;;;;;5096153;28;20499;-84
2022/04/14 09:44:09;;;;;;;21.10;14.30;;;14.50;99.90;;;;;;5101890;28;20030;-84
2022/04/14 09:46:37;;;;;;;18.63;13.85;;;14.40;99.90;;;;;;5100160;28;20048;-84
2022/04/14 09:49:17;;;;;;;20.65;14.73;;;14.30;99.90;;;;;;5100336;28;20532;-84
2022/04/14 09:51:45;;;;;;;22.02;17.38;;;14.30;99.90;;;;;;5101431;28;20025;-84
2022/04/14 09:54:19;;;;;;;19.45;14.65;;;14.30;99.90;;;;;;5100365;28;20055;-83
2022/04/14 09:56:48;;;;;;;22.30;15.38;;;14.30;99.90;;;;;;5099772;28;20077;-84
2022/04/14 09:59:17;;;;;;;22.52;16.13;;;14.30;99.90;;;;;;5100427;28;20149;-84
2022/04/14 10:01:43;;;;;;;26.42;18.00;;;14.40;99.90;;;;;;5100098;28;20369;-84
2022/04/14 10:04:32;;;;;;;24.65;19.65;;;14.40;99.90;;;;;;5100026;28;20025;-84
2022/04/14 10:07:11;;;;;;;28.52;22.55;;;14.50;99.90;;;;;;5100447;28;20061;-83
2022/04/14 10:09:39;;;;;;;30.30;22.25;;;14.60;99.90;;;;;;5101326;28;20031;-84
2022/04/14 10:12:25;;;;;;;33.17;23.00;;;14.70;99.90;;;;;;5101285;28;20477;-84
2022/04/14 10:14:58;;;;;;;35.13;21.40;;;14.80;99.90;;;;;;5101193;28;20031;-84
2022/04/14 10:17:29;;;;;;;28.38;19.30;;;15.00;99.90;;;;;;5099650;28;20036;-83
2022/04/14 10:19:55;;;;;;;21.85;17.10;;;15.20;99.90;;;;;;5101448;28;20055;-84
2022/04/14 10:22:22;;;;;;;21.42;16.05;;;15.30;99.90;;;;;;5101376;28;20020;-83
2022/04/14 10:24:52;;;;;;;17.40;13.52;;;15.40;99.90;;;;;;5099829;28;20503;-82
2022/04/14 10:27:20;;;;;;;19.20;14.25;;;15.30;99.90;;;;;;5100585;28;20035;-82
2022/04/14 10:29:48;;;;;;;18.98;13.73;;;15.30;99.90;;;;;;5102679;28;20051;-83
2022/04/14 10:32:14;;;;;;;17.15;13.15;;;15.40;99.90;;;;;;5100991;28;20020;-81
2022/04/14 10:34:40;;;;;;;17.90;11.02;;;15.40;99.90;;;;;;5103035;28;20051;-82
2022/04/14 10:37:16;;;;;;;15.93;8.95;;;15.50;99.90;;;;;;5102310;28;20023;-83
2022/04/14 10:39:46;;;;;;;14.73;9.85;;;15.60;99.90;;;;;;5103333;28;20016;-82
2022/04/14 10:42:25;;;;;;;17.23;10.00;;;15.60;99.90;;;;;;5101131;28;20020;-83
2022/04/14 10:44:53;;;;;;;20.60;9.70;;;15.70;99.90;;;;;;5101772;28;20034;-87
2022/04/14 10:47:50;;;;;;;17.58;9.15;;;15.90;99.90;;;;;;5104599;28;20044;-86
2022/04/14 10:50:42;;;;;;;11.20;6.80;;;16.00;99.90;;;;;;5103887;28;20503;-85
2022/04/14 10:53:13;;;;;;;16.33;7.28;;;16.30;99.90;;;;;;5100827;28;20397;-85
2022/04/14 10:55:41;;;;;;;12.70;6.82;;;16.30;99.90;;;;;;5103604;28;20053;-85
2022/04/14 10:58:26;;;;;;;19.05;7.75;;;16.40;99.90;;;;;;5103941;28;20028;-84
2022/04/14 11:00:54;;;;;;;16.05;6.40;;;16.50;99.90;;;;;;5103503;28;20095;-84
2022/04/14 11:03:20;;;;;;;15.23;6.32;;;16.60;99.90;;;;;;5103682;28;20476;-85
2022/04/14 11:05:50;;;;;;;14.38;5.78;;;16.60;99.90;;;;;;5103655;28;20020;-86
2022/04/14 11:08:31;;;;;;;12.65;5.63;;;16.70;99.90;;;;;;5102891;28;20095;-86
2022/04/14 11:11:15;;;;;;;12.82;5.20;;;16.80;99.90;;;;;;5099956;28;20035;-84
2022/04/14 11:13:54;;;;;;;15.27;6.18;;;16.90;99.90;;;;;;5098340;28;20117;-84
2022/04/14 11:16:47;;;;;;;17.70;6.18;;;17.00;99.90;;;;;;5087913;28;20020;-86
2022/04/14 11:19:24;;;;;;;18.73;7.80;;;17.10;99.90;;;;;;5099984;28;20111;-86
2022/04/14 11:22:02;;;;;;;19.48;8.18;;;17.10;99.90;;;;;;5099815;28;20028;-86
2022/04/14 11:24:37;;;;;;;23.70;6.43;;;17.20;99.90;;;;;;5101186;28;20024;-84
2022/04/14 11:27:21;;;;;;;21.15;6.40;;;17.30;99.90;;;;;;5099230;28;20028;-84
2022/04/14 11:29:49;;;;;;;9.88;6.10;;;17.30;99.90;;;;;;5089233;28;20050;-85
2022/04/14 11:32:42;;;;;;;16.90;7.22;;;17.40;99.90;;;;;;5102617;28;20503;-85
2022/04/14 11:35:18;;;;;;;19.27;10.38;;;17.50;99.90;;;;;;5105430;28;20086;-85
2022/04/14 11:37:46;;;;;;;26.65;10.02;;;17.50;99.90;;;;;;5111860;28;20028;-85
2022/04/14 11:40:22;;;;;;;25.08;10.35;;;17.40;99.90;;;;;;5103291;28;20110;-85
2022/04/14 11:43:00;;;;;;;24.27;11.82;;;17.40;99.90;;;;;;5093659;28;20026;-84
2022/04/14 11:45:28;;;;;;;25.95;11.85;;;17.60;99.90;;;;;;5101435;28;20123;-85
2022/04/14 11:48:00;;;;;;;21.38;10.80;;;17.60;99.90;;;;;;5104488;28;20028;-86
2022/04/14 11:50:28;;;;;;;21.00;10.90;;;17.70;99.90;;;;;;5107010;28;20459;-86
2022/04/14 11:53:01;;;;;;;17.30;9.50;;;17.80;99.90;;;;;;5102921;28;20396;-84
2022/04/14 11:55:39;;;;;;;21.20;11.93;;;18.00;99.90;;;;;;5102131;28;20020;-85
2022/04/14 11:58:17;;;;;;;28.38;10.60;;;18.10;99.90;;;;;;5105069;28;20028;-85
2022/04/14 12:00:50;;;;;;;24.45;10.45;;;18.20;99.90;;;;;;5100481;28;20020;-86
2022/04/14 12:03:30;;;;;;;16.15;8.38;;;18.40;99.90;;;;;;5103601;28;20028;-85
2022/04/14 12:06:02;;;;;;;26.27;10.43;;;18.50;99.90;;;;;;5102311;28;20016;-86
2022/04/14 12:08:28;;;;;;;20.70;8.90;;;18.60;99.90;;;;;;5100562;28;20407;-85
2022/04/14 12:10:54;;;;;;;16.00;7.82;;;18.80;99.90;;;;;;5102460;28;20036;-84
2022/04/14 12:13:21;;;;;;;20.85;7.32;;;18.80;99.90;;;;;;5102764;28;20041;-85
2022/04/14 12:16:10;;;;;;;21.70;8.07;;;18.50;99.90;;;;;;5100380;28;20072;-83
2022/04/14 12:18:39;;;;;;;25.45;9.02;;;18.40;99.90;;;;;;5103797;28;20024;-84
2022/04/14 12:21:06;;;;;;;12.15;6.72;;;18.40;99.90;;;;;;5101961;28;20030;-85
2022/04/14 12:23:33;;;;;;;16.67;7.45;;;18.50;99.90;;;;;;5098211;28;20020;-84
2022/04/14 12:26:03;;;;;;;17.73;6.53;;;18.60;99.90;;;;;;5103850;28;20138;-85
2022/04/14 12:28:30;;;;;;;18.45;6.50;;;18.90;99.90;;;;;;5101916;28;20024;-85
2022/04/14 12:31:08;;;;;;;16.27;6.13;;;19.10;99.90;;;;;;5089685;28;20131;-85
2022/04/14 12:33:35;;;;;;;13.05;6.03;;;19.10;99.90;;;;;;5101357;28;20035;-85
2022/04/14 12:36:09;;;;;;;19.60;6.80;;;19.20;99.90;;;;;;5105835;28;20049;-84
2022/04/14 12:38:43;;;;;;;13.07;4.80;;;19.10;99.90;;;;;;5104714;28;20031;-85
2022/04/14 12:41:14;;;;;;;12.75;5.13;;;19.00;99.90;;;;;;5099259;28;20396;-85